N738BJ KBFI-RJAA
Flight info
| Callsign | N738BJ |
|---|---|
| Flight time | N/A |
| Altitude | 34000 |
| Route | NRVNA1 NRVNA DCT ZIGED DCT PERLL DCT ARRIE J523 TOU DCT LETOG DCT METPA B453 KATCH B757 CJAYY J123 ODK/N0456F360 J123 KOKOZ DCT EHM B757 HOWRR M523 HAVAM R341 NATES/N0445F380 R220 NUZAN/N0455F390 R220 NUBDA/N0450F400 R220 NANAC Y810 OLDIV Y809 SUPOK |
| Aircraft | B738/M-SDE2E3FGHIRWXY/LB1 |
Departure
| Time | 2026-05-04 23:37 |
|---|---|
| Airport | King County International Airport - Boeing Field (KBFI) |
Arrival
| Time | N/A |
|---|---|
| Airport | Narita International Airport (RJAA) |
| Time | Latitude | Longitude | Altitude | Speed | Heading |
|---|---|---|---|---|---|
| 2026-05-04 21:13 | 47.52698 | -122.29688 | 26 ft | 0 kts | 328° |
| 2026-05-04 21:33 | 47.52695 | -122.29685 | 26 ft | 2 kts | 328° |
| 2026-05-04 21:33 | 47.52697 | -122.29687 | 26 ft | 0 kts | 328° |
| 2026-05-04 23:29 | 47.52715 | -122.29707 | 26 ft | 8 kts | 314° |
| 2026-05-04 23:29 | 47.52708 | -122.29780 | 28 ft | 13 kts | 276° |
| 2026-05-04 23:30 | 47.52689 | -122.29982 | 21 ft | 25 kts | 239° |
| 2026-05-04 23:30 | 47.52720 | -122.30162 | 28 ft | 22 kts | 327° |
| 2026-05-04 23:30 | 47.52853 | -122.30270 | 29 ft | 22 kts | 328° |
| 2026-05-04 23:30 | 47.52980 | -122.30380 | 25 ft | 21 kts | 330° |
| 2026-05-04 23:31 | 47.53104 | -122.30485 | 29 ft | 20 kts | 330° |
| 2026-05-04 23:31 | 47.53225 | -122.30586 | 28 ft | 20 kts | 330° |
| 2026-05-04 23:31 | 47.53342 | -122.30684 | 27 ft | 19 kts | 330° |
| 2026-05-04 23:31 | 47.53456 | -122.30778 | 27 ft | 18 kts | 330° |
| 2026-05-04 23:32 | 47.53566 | -122.30869 | 30 ft | 18 kts | 331° |
| 2026-05-04 23:32 | 47.53686 | -122.30968 | 26 ft | 20 kts | 331° |
| 2026-05-04 23:32 | 47.53806 | -122.31074 | 26 ft | 20 kts | 327° |
| 2026-05-04 23:32 | 47.53921 | -122.31179 | 30 ft | 19 kts | 328° |
| 2026-05-04 23:33 | 47.53969 | -122.31276 | 26 ft | 11 kts | 253° |
| 2026-05-04 23:33 | 47.53930 | -122.31376 | 27 ft | 11 kts | 223° |
| 2026-05-04 23:33 | 47.53852 | -122.31365 | 27 ft | 15 kts | 149° |
| 2026-05-04 23:33 | 47.53756 | -122.31281 | 27 ft | 10 kts | 154° |
| 2026-05-04 23:34 | 47.53685 | -122.31276 | 27 ft | 10 kts | 168° |
| 2026-05-04 23:34 | 47.53682 | -122.31211 | 27 ft | 7 kts | 16° |
| 2026-05-04 23:34 | 47.53745 | -122.31269 | 27 ft | 18 kts | 323° |
| 2026-05-04 23:34 | 47.53852 | -122.31360 | 27 ft | 17 kts | 331° |
| 2026-05-04 23:35 | 47.53935 | -122.31363 | 27 ft | 11 kts | 47° |
| 2026-05-04 23:35 | 47.53976 | -122.31267 | 30 ft | 11 kts | 61° |
| 2026-05-04 23:35 | 47.54011 | -122.31170 | 28 ft | 11 kts | 73° |
| 2026-05-04 23:35 | 47.53987 | -122.31078 | 28 ft | 10 kts | 151° |
| 2026-05-04 23:36 | 47.53883 | -122.30992 | 30 ft | 41 kts | 150° |
| 2026-05-04 23:36 | 47.53413 | -122.30595 | 25 ft | 110 kts | 150° |
| 2026-05-04 23:36 | 47.52577 | -122.29884 | 24 ft | 166 kts | 150° |
| 2026-05-04 23:36 | 47.51488 | -122.28959 | 294 ft | 194 kts | 150° |
| 2026-05-04 23:37 | 47.50263 | -122.27953 | 1013 ft | 200 kts | 150° |
| 2026-05-04 23:37 | 47.49063 | -122.26953 | 1868 ft | 202 kts | 150° |
| 2026-05-04 23:37 | 47.47794 | -122.26025 | 2617 ft | 207 kts | 168° |
| 2026-05-04 23:37 | 47.46319 | -122.26104 | 2854 ft | 223 kts | 203° |
| 2026-05-04 23:38 | 47.45033 | -122.27469 | 3101 ft | 238 kts | 234° |
| 2026-05-04 23:38 | 47.44376 | -122.29740 | 3503 ft | 249 kts | 260° |
| 2026-05-04 23:38 | 47.44136 | -122.32356 | 3971 ft | 261 kts | 264° |
| 2026-05-04 23:38 | 47.43946 | -122.35038 | 4700 ft | 263 kts | 265° |
| 2026-05-04 23:39 | 47.43810 | -122.37734 | 5409 ft | 266 kts | 274° |
| 2026-05-04 23:39 | 47.44428 | -122.40280 | 6066 ft | 267 kts | 306° |
| 2026-05-04 23:39 | 47.45613 | -122.42402 | 6782 ft | 269 kts | 309° |
| 2026-05-04 23:39 | 47.46819 | -122.44553 | 7414 ft | 273 kts | 309° |
| 2026-05-04 23:40 | 47.48019 | -122.46742 | 8094 ft | 275 kts | 307° |
| 2026-05-04 23:40 | 47.49184 | -122.49010 | 8777 ft | 278 kts | 306° |
| 2026-05-04 23:40 | 47.50338 | -122.51314 | 9423 ft | 280 kts | 306° |
| 2026-05-04 23:40 | 47.51491 | -122.53649 | 10057 ft | 283 kts | 306° |
| 2026-05-04 23:41 | 47.52653 | -122.56020 | 10710 ft | 285 kts | 306° |
| 2026-05-04 23:41 | 47.53842 | -122.58457 | 10989 ft | 303 kts | 306° |
| 2026-05-04 23:41 | 47.55118 | -122.61079 | 11167 ft | 323 kts | 306° |
| 2026-05-04 23:41 | 47.56448 | -122.63873 | 11318 ft | 342 kts | 303° |
| 2026-05-04 23:42 | 47.57709 | -122.66966 | 11583 ft | 357 kts | 300° |
| 2026-05-04 23:42 | 47.58929 | -122.70199 | 12135 ft | 361 kts | 300° |
| 2026-05-04 23:42 | 47.60120 | -122.73412 | 12750 ft | 363 kts | 300° |
| 2026-05-04 23:42 | 47.61342 | -122.76704 | 13361 ft | 365 kts | 300° |
| 2026-05-04 23:43 | 47.62579 | -122.80009 | 13931 ft | 369 kts | 300° |
| 2026-05-04 23:43 | 47.63833 | -122.83340 | 14504 ft | 371 kts | 301° |
| 2026-05-04 23:43 | 47.65102 | -122.86694 | 15071 ft | 374 kts | 301° |
| 2026-05-04 23:43 | 47.66379 | -122.90062 | 15626 ft | 377 kts | 301° |
| 2026-05-04 23:44 | 47.67670 | -122.93468 | 16179 ft | 379 kts | 301° |
| 2026-05-04 23:44 | 47.68963 | -122.96882 | 16736 ft | 381 kts | 301° |
| 2026-05-04 23:44 | 47.70263 | -123.00315 | 17227 ft | 384 kts | 301° |
| 2026-05-04 23:44 | 47.71577 | -123.03790 | 17708 ft | 387 kts | 301° |
| 2026-05-04 23:45 | 47.72896 | -123.07289 | 18213 ft | 390 kts | 301° |
| 2026-05-04 23:45 | 47.74227 | -123.10816 | 18673 ft | 393 kts | 301° |
| 2026-05-04 23:45 | 47.75492 | -123.14429 | 19105 ft | 396 kts | 301° |
| 2026-05-04 23:45 | 47.76884 | -123.17954 | 19626 ft | 396 kts | 303° |
| 2026-05-04 23:46 | 47.78270 | -123.21504 | 20107 ft | 398 kts | 302° |
| 2026-05-04 23:46 | 47.79615 | -123.25112 | 20546 ft | 401 kts | 301° |
| 2026-05-04 23:46 | 47.80963 | -123.28760 | 20946 ft | 404 kts | 302° |
| 2026-05-04 23:46 | 47.82355 | -123.32414 | 21365 ft | 408 kts | 302° |
| 2026-05-04 23:47 | 47.83747 | -123.36102 | 21823 ft | 409 kts | 302° |
| 2026-05-04 23:47 | 47.85119 | -123.39817 | 22297 ft | 409 kts | 302° |
| 2026-05-04 23:47 | 47.86493 | -123.43540 | 22691 ft | 412 kts | 302° |
| 2026-05-04 23:47 | 47.87886 | -123.47292 | 22999 ft | 416 kts | 302° |
| 2026-05-04 23:48 | 47.89289 | -123.51068 | 23360 ft | 417 kts | 302° |
| 2026-05-04 23:48 | 47.90696 | -123.54852 | 23745 ft | 419 kts | 302° |
| 2026-05-04 23:48 | 47.92113 | -123.58653 | 24080 ft | 421 kts | 302° |
| 2026-05-04 23:48 | 47.93518 | -123.62436 | 24359 ft | 424 kts | 302° |
| 2026-05-04 23:49 | 47.94947 | -123.66290 | 24704 ft | 425 kts | 302° |
| 2026-05-04 23:49 | 47.96382 | -123.70166 | 25061 ft | 427 kts | 302° |
| 2026-05-04 23:49 | 47.97819 | -123.74051 | 25346 ft | 430 kts | 302° |
| 2026-05-04 23:49 | 47.99267 | -123.77979 | 25662 ft | 432 kts | 302° |
| 2026-05-04 23:50 | 48.00713 | -123.81905 | 26053 ft | 432 kts | 302° |
| 2026-05-04 23:50 | 48.02164 | -123.85848 | 26313 ft | 435 kts | 302° |
| 2026-05-04 23:50 | 48.03621 | -123.89812 | 26582 ft | 437 kts | 302° |
| 2026-05-04 23:50 | 48.05084 | -123.93801 | 26881 ft | 438 kts | 302° |
| 2026-05-04 23:51 | 48.06549 | -123.97802 | 27144 ft | 440 kts | 302° |
| 2026-05-04 23:51 | 48.08019 | -124.01825 | 27417 ft | 441 kts | 302° |
| 2026-05-04 23:51 | 48.09490 | -124.05842 | 27625 ft | 442 kts | 302° |
| 2026-05-04 23:51 | 48.10972 | -124.09900 | 27830 ft | 445 kts | 302° |
| 2026-05-04 23:52 | 48.12450 | -124.13965 | 28072 ft | 446 kts | 302° |
| 2026-05-04 23:52 | 48.13934 | -124.18059 | 28370 ft | 447 kts | 302° |
| 2026-05-04 23:52 | 48.15413 | -124.22143 | 28715 ft | 445 kts | 302° |
| 2026-05-04 23:52 | 48.16886 | -124.26211 | 29075 ft | 444 kts | 302° |
| 2026-05-04 23:53 | 48.18354 | -124.30273 | 29426 ft | 442 kts | 302° |
| 2026-05-04 23:53 | 48.19814 | -124.34318 | 29736 ft | 442 kts | 302° |
| 2026-05-04 23:53 | 48.21274 | -124.38366 | 30070 ft | 441 kts | 302° |
| 2026-05-04 23:53 | 48.22731 | -124.42411 | 30374 ft | 440 kts | 302° |
| 2026-05-04 23:54 | 48.24185 | -124.46455 | 30616 ft | 440 kts | 302° |
| 2026-05-04 23:54 | 48.25636 | -124.50497 | 30912 ft | 440 kts | 302° |
| 2026-05-04 23:54 | 48.27084 | -124.54537 | 31192 ft | 439 kts | 302° |
| 2026-05-04 23:54 | 48.28527 | -124.58570 | 31461 ft | 439 kts | 302° |
| 2026-05-04 23:55 | 48.29994 | -124.62586 | 31739 ft | 436 kts | 306° |
| 2026-05-04 23:55 | 48.31715 | -124.66291 | 32001 ft | 431 kts | 312° |
| 2026-05-04 23:55 | 48.34815 | -124.72148 | 32380 ft | 431 kts | 313° |